Midway, Georgia
Current Conditions -  °F | °C
As of 7:58 AM on Friday 28 Nov 2014 (Local Time) from KLHW Reporting Station
Clear Clear  
Wind Chill: 29°   Ceiling: Unl
Heat Index: 35°   Visibility: 10mi
Dew Point: 29°   Wind: 8mph
Humidity: 78%   Direction: 350°N
Pressure: 30.37"   Gusts: NA
Location:  31.81°N, 81.43°W
Report Text: KLHW 281258Z AUTO 35007KT 10SM CLR 02/M01 A3037 RMK AO2 SLP288 T00191015
Loading
Personal Weather Stations






























Interactive Weather Map New forecast layout! Learn more

10-Day Weather Forecast

Advertisements
Track Severe Weather on mobile